Time;durP1;ratioP1;P1;durP2;ratioP2;P2;SDS_P1;SDS_P2;PMS_P1;PMS_P2;Temp;Humidity;BMP_temperature;BMP_pressure;BME280_temperature;BME280_humidity;BME280_pressure;Samples;Min_cycle;Max_cycle;Signal;HPM_P1;HPM_P2
2023/04/09 06:44:24;;;;;;;22.70;14.73;;;;;;;5.91;81.33;97217.63;2087561;28;20563;-60
2023/04/09 06:45:26;;;;;;;22.77;14.35;;;;;;;5.82;81.20;97224.66;2082277;28;20224;-62
2023/04/09 06:49:01;;;;;;;20.70;13.75;;;;;;;6.42;80.73;97227.97;2082296;28;20564;-60
2023/04/09 06:51:06;;;;;;;24.35;15.10;;;;;;;7.04;79.88;97221.56;2089818;28;20556;-60
2023/04/09 06:52:08;;;;;;;22.13;14.57;;;;;;;7.30;78.12;97230.53;2083273;28;20233;-62
2023/04/09 06:53:09;;;;;;;24.63;14.35;;;;;;;7.82;77.40;97228.44;2076673;28;20241;-62
2023/04/09 06:54:11;;;;;;;22.80;15.15;;;;;;;8.11;75.93;97226.88;2075963;28;20221;-62
2023/04/09 06:55:13;;;;;;;22.10;14.60;;;;;;;7.77;77.50;97219.91;2076472;28;20201;-62
2023/04/09 06:56:14;;;;;;;23.27;14.98;;;;;;;7.96;77.28;97230.72;2078654;28;20208;-62
2023/04/09 06:57:16;;;;;;;20.73;13.75;;;;;;;7.75;77.45;97209.56;2078711;28;20225;-62
2023/04/09 06:58:17;;;;;;;24.65;15.55;;;;;;;7.90;76.98;97223.94;2075868;28;20228;-62
2023/04/09 06:59:18;;;;;;;21.88;14.70;;;;;;;7.94;76.92;97225.56;2077610;28;20222;-62
2023/04/09 07:00:21;;;;;;;22.63;14.45;;;;;;;8.21;76.31;97224.91;2078568;28;20209;-62
2023/04/09 07:01:24;;;;;;;19.85;14.60;;;;;;;8.49;75.66;97222.44;2079859;28;20569;-63
2023/04/09 07:02:26;;;;;;;23.83;14.07;;;;;;;8.77;74.48;97224.28;2076416;28;20234;-62
2023/04/09 07:03:28;;;;;;;21.67;13.75;;;;;;;8.74;74.44;97229.59;2076167;28;20587;-62
2023/04/09 07:04:30;;;;;;;18.27;13.00;;;;;;;9.05;73.62;97216.53;2077142;28;20203;-62
2023/04/09 07:05:32;;;;;;;19.23;12.65;;;;;;;9.27;73.16;97232.38;2078117;28;20816;-63
2023/04/09 07:06:33;;;;;;;18.48;12.90;;;;;;;9.32;72.25;97222.66;2077542;28;20219;-62
2023/04/09 07:07:34;;;;;;;19.90;13.40;;;;;;;9.31;71.73;97220.97;2076882;28;20224;-63
2023/04/09 07:08:36;;;;;;;20.45;12.07;;;;;;;10.05;69.43;97233.41;2077149;28;20193;-63
2023/04/09 07:09:37;;;;;;;18.33;12.30;;;;;;;9.42;70.95;97232.81;2074600;28;20284;-62
2023/04/09 07:10:39;;;;;;;19.40;14.10;;;;;;;9.29;72.28;97229.72;2075736;28;20208;-63
2023/04/09 07:11:41;;;;;;;21.23;12.70;;;;;;;9.38;72.02;97226.00;2071869;28;20773;-62
2023/04/09 07:12:42;;;;;;;18.63;13.88;;;;;;;9.78;71.42;97222.97;2072468;28;20268;-63
2023/04/09 07:13:44;;;;;;;17.42;12.80;;;;;;;10.23;67.98;97192.81;2079217;28;20410;-63
2023/04/09 07:14:45;;;;;;;20.80;13.45;;;;;;;10.24;68.66;97225.81;2081700;28;20208;-63
2023/04/09 07:15:47;;;;;;;18.38;12.13;;;;;;;10.33;68.69;97229.03;2076900;28;20201;-63
2023/04/09 07:16:48;;;;;;;18.70;12.82;;;;;;;10.13;68.40;97226.19;2076183;28;20296;-63
2023/04/09 07:17:49;;;;;;;19.48;13.13;;;;;;;9.85;69.72;97236.66;2079734;28;20287;-62
2023/04/09 07:18:51;;;;;;;20.55;12.90;;;;;;;9.85;69.74;97231.44;2080390;28;20197;-62
2023/04/09 07:19:53;;;;;;;19.20;13.05;;;;;;;10.32;67.55;97229.94;2078917;28;20189;-62
2023/04/09 07:20:55;;;;;;;18.25;12.90;;;;;;;9.95;68.03;97232.88;2075976;28;20191;-62
2023/04/09 07:21:56;;;;;;;18.23;12.55;;;;;;;10.26;67.75;97234.47;2080557;28;20691;-62
2023/04/09 07:22:57;;;;;;;19.65;13.32;;;;;;;10.69;65.95;97239.09;2077865;28;20189;-62
2023/04/09 07:23:59;;;;;;;18.38;12.50;;;;;;;10.80;66.02;97221.28;2077455;28;20186;-62
2023/04/09 07:25:00;;;;;;;14.50;11.13;;;;;;;10.89;65.55;97228.81;2077756;28;20647;-61
2023/04/09 07:26:03;;;;;;;17.30;11.55;;;;;;;10.94;64.37;97232.09;2076362;28;20220;-61
2023/04/09 07:27:05;;;;;;;17.67;11.73;;;;;;;11.27;64.15;97229.16;2077381;28;20639;-62
2023/04/09 07:28:06;;;;;;;19.55;12.10;;;;;;;11.49;64.16;97230.06;2076303;28;20197;-62
2023/04/09 07:29:08;;;;;;;18.05;12.88;;;;;;;11.01;63.14;97232.72;2080808;28;20197;-62
2023/04/09 07:30:09;;;;;;;16.88;12.25;;;;;;;11.02;64.06;97225.72;2077737;28;20194;-62
2023/04/09 07:31:11;;;;;;;17.95;11.93;;;;;;;11.03;63.04;97230.88;2076818;28;20209;-62
2023/04/09 07:32:14;;;;;;;15.30;10.77;;;;;;;11.50;63.66;97230.00;2075312;28;20248;-62
2023/04/09 07:33:16;;;;;;;16.92;11.15;;;;;;;12.00;61.89;97234.16;2077524;28;20742;-62
2023/04/09 07:34:17;;;;;;;15.52;11.10;;;;;;;12.09;61.74;97238.16;2074984;28;20229;-62
2023/04/09 07:35:19;;;;;;;16.13;11.88;;;;;;;11.80;60.37;97236.72;2074097;28;20200;-62
2023/04/09 07:36:20;;;;;;;15.60;11.82;;;;;;;11.50;62.28;97230.00;2073231;28;20252;-62
2023/04/09 07:37:22;;;;;;;16.15;12.15;;;;;;;11.96;61.74;97229.09;2073963;28;20233;-62
2023/04/09 07:38:23;;;;;;;16.30;12.32;;;;;;;11.90;62.04;97238.03;2077184;28;20208;-62
2023/04/09 07:39:26;;;;;;;19.98;10.93;;;;;;;12.14;59.96;97230.09;2084506;28;20222;-65
2023/04/09 07:40:28;;;;;;;15.63;11.40;;;;;;;12.62;59.38;97238.56;2083130;28;20224;-65
2023/04/09 07:41:32;;;;;;;16.90;12.45;;;;;;;12.17;60.22;97233.44;2073709;28;20205;-65
2023/04/09 07:42:36;;;;;;;15.57;10.82;;;;;;;12.22;60.01;97241.13;2072422;28;20259;-65
2023/04/09 07:43:37;;;;;;;15.85;11.00;;;;;;;11.33;61.77;97243.72;2075871;28;20197;-65
2023/04/09 07:44:39;;;;;;;15.38;10.20;;;;;;;12.15;57.66;97239.66;2074155;28;20789;-65
2023/04/09 07:45:41;;;;;;;17.08;11.07;;;;;;;11.13;61.18;97241.03;2075691;28;20220;-65
2023/04/09 07:46:43;;;;;;;14.85;9.93;;;;;;;11.05;60.92;97241.31;2078113;28;20193;-65
2023/04/09 07:47:44;;;;;;;14.13;9.57;;;;;;;11.51;59.82;97244.78;2078938;28;20213;-65
2023/04/09 07:48:46;;;;;;;26.48;12.23;;;;;;;11.74;59.68;97245.63;2077047;28;20212;-62
2023/04/09 07:49:49;;;;;;;14.23;10.20;;;;;;;11.61;59.30;97247.88;2076056;28;20208;-62
2023/04/09 07:50:50;;;;;;;14.60;10.30;;;;;;;12.21;58.17;97244.66;2076761;28;20260;-62
2023/04/09 07:51:52;;;;;;;13.02;10.25;;;;;;;12.67;58.68;97241.84;2075827;28;20332;-62
2023/04/09 07:52:53;;;;;;;14.20;9.90;;;;;;;12.35;57.96;97246.69;2077011;28;20879;-62
2023/04/09 07:53:54;;;;;;;11.73;8.77;;;;;;;12.60;56.76;97237.81;2077581;28;20612;-62
2023/04/09 07:54:56;;;;;;;19.40;11.25;;;;;;;12.43;57.50;97241.13;2076640;28;20197;-62
2023/04/09 07:55:58;;;;;;;15.13;10.48;;;;;;;12.03;57.88;97239.25;2075654;28;20193;-60
2023/04/09 07:57:03;;;;;;;12.95;10.20;;;;;;;12.23;58.60;97238.44;2072091;28;20619;-60
2023/04/09 07:58:05;;;;;;;17.02;11.70;;;;;;;11.67;58.84;97241.56;2077943;28;20856;-60
2023/04/09 07:59:06;;;;;;;14.63;10.15;;;;;;;12.11;58.86;97238.09;2078002;28;20188;-61
2023/04/09 08:00:08;;;;;;;16.40;10.10;;;;;;;12.81;58.50;97234.22;2077781;28;20204;-60
2023/04/09 08:01:10;;;;;;;13.32;9.55;;;;;;;12.85;57.69;97237.53;2076870;28;20231;-61
2023/04/09 08:02:11;;;;;;;10.75;8.65;;;;;;;13.75;55.56;97236.97;2072621;28;20309;-60
2023/04/09 08:03:16;;;;;;;11.85;9.15;;;;;;;13.58;54.77;97247.41;2069807;28;20255;-61
2023/04/09 08:04:18;;;;;;;15.07;9.98;;;;;;;13.02;55.34;97245.50;2071851;28;20194;-62
2023/04/09 08:05:20;;;;;;;15.73;10.18;;;;;;;12.45;56.24;97240.13;2072719;28;20198;-60
2023/04/09 08:06:21;;;;;;;12.75;8.90;;;;;;;12.37;55.31;97244.88;2073820;28;20197;-60
2023/04/09 08:07:23;;;;;;;15.82;8.68;;;;;;;13.39;54.11;97240.38;2063351;28;20230;-60
2023/04/09 08:08:24;;;;;;;12.65;8.32;;;;;;;14.16;52.58;97252.47;2068840;28;20240;-60
2023/04/09 08:09:26;;;;;;;12.15;8.27;;;;;;;13.77;52.44;97234.25;2070178;28;20208;-62
2023/04/09 08:10:27;;;;;;;12.43;9.18;;;;;;;13.02;51.61;97242.88;2068481;28;20203;-62
2023/04/09 08:11:29;;;;;;;10.73;7.95;;;;;;;11.67;55.32;97244.16;2069826;28;20787;-62
2023/04/09 08:12:30;;;;;;;12.88;8.05;;;;;;;11.71;57.13;97245.78;2069921;28;20237;-62
2023/04/09 08:13:32;;;;;;;11.60;7.78;;;;;;;11.39;57.36;97248.72;2078789;28;20862;-62
2023/04/09 08:14:33;;;;;;;12.70;7.60;;;;;;;11.92;55.94;97238.81;2069758;28;20209;-62
2023/04/09 08:15:35;;;;;;;17.83;8.18;;;;;;;12.24;55.44;97242.75;2072486;28;20225;-62
2023/04/09 08:16:36;;;;;;;13.48;9.32;;;;;;;11.86;55.99;97246.91;2072288;28;20230;-62
2023/04/09 08:17:38;;;;;;;12.90;8.60;;;;;;;12.61;56.00;97240.34;2069664;28;20624;-62
2023/04/09 08:18:39;;;;;;;11.98;8.25;;;;;;;12.42;55.84;97250.75;2071786;28;20210;-61
2023/04/09 08:19:41;;;;;;;11.95;8.45;;;;;;;12.96;52.61;97255.44;2070355;28;21238;-62
2023/04/09 08:20:44;;;;;;;12.40;7.05;;;;;;;12.84;52.25;97247.19;2070305;28;20205;-61
2023/04/09 08:21:47;;;;;;;9.95;6.47;;;;;;;13.42;51.29;97244.63;2070484;28;20210;-61
2023/04/09 08:22:49;;;;;;;10.57;6.07;;;;;;;12.60;50.35;97250.91;2073219;28;20201;-61
2023/04/09 08:23:50;;;;;;;12.00;7.38;;;;;;;12.17;50.90;97245.69;2072051;28;20213;-61
2023/04/09 08:24:52;;;;;;;8.20;5.65;;;;;;;10.82;52.58;97243.00;2069571;28;20202;-61
2023/04/09 08:25:54;;;;;;;7.68;5.85;;;;;;;9.97;54.96;97257.16;2072349;28;20202;-61
2023/04/09 08:32:11;;;;;;;13.10;8.25;;;;;;;9.30;61.53;97240.09;2090904;27;20550;-60
2023/04/09 08:34:19;;;;;;;12.23;8.10;;;;;;;9.89;59.57;97250.47;2083169;28;20556;-60
2023/04/09 08:36:31;;;;;;;14.27;8.30;;;;;;;10.10;60.21;97252.38;2082421;28;20551;-61
2023/04/09 08:39:03;;;;;;;11.60;7.35;;;;;;;9.97;60.90;97254.53;2086479;28;21022;-61
2023/04/09 08:41:30;;;;;;;11.70;8.88;;;;;;;9.22;62.17;97254.25;2082630;28;20557;-63
2023/04/09 08:42:34;;;;;;;12.00;8.48;;;;;;;9.59;61.44;97256.59;2072669;28;20236;-63
2023/04/09 08:44:49;;;;;;;12.63;9.07;;;;;;;9.10;62.28;97251.13;2081749;28;20615;-61
2023/04/09 08:45:51;;;;;;;11.95;8.45;;;;;;;8.57;64.54;97262.16;2077348;28;20201;-63
2023/04/09 08:46:53;;;;;;;13.65;8.93;;;;;;;8.52;65.17;97260.56;2078812;28;20787;-63
2023/04/09 08:47:58;;;;;;;13.45;9.60;;;;;;;8.94;64.89;97257.69;2071885;28;20718;-63
2023/04/09 08:49:00;;;;;;;11.40;8.48;;;;;;;8.34;66.20;97250.56;2071875;28;20247;-63
2023/04/09 08:50:03;;;;;;;13.45;9.43;;;;;;;8.69;65.62;97257.50;2070711;28;20202;-63
2023/04/09 08:51:05;;;;;;;15.93;11.50;;;;;;;8.59;66.68;97257.75;2068461;28;20190;-63
2023/04/09 08:52:07;;;;;;;15.90;11.10;;;;;;;9.08;65.90;97247.72;2069172;28;20217;-63
2023/04/09 08:53:09;;;;;;;16.65;10.68;;;;;;;9.27;64.92;97260.22;2073660;28;20205;-63
2023/04/09 08:54:18;;;;;;;15.50;10.10;;;;;;;9.19;66.03;97251.75;2068606;28;20628;-63
2023/04/09 08:55:20;;;;;;;16.23;11.23;;;;;;;9.37;65.37;97261.63;2073515;28;20197;-63
2023/04/09 08:56:22;;;;;;;14.93;10.32;;;;;;;9.64;65.19;97266.91;2073587;28;20229;-63
2023/04/09 08:57:24;;;;;;;17.38;9.45;;;;;;;9.92;64.41;97266.88;2069835;28;20225;-63
2023/04/09 08:58:26;;;;;;;13.65;9.73;;;;;;;9.86;64.26;97268.84;2070657;28;20202;-63
2023/04/09 08:59:28;;;;;;;12.00;8.52;;;;;;;9.99;63.92;97269.28;2071756;28;20213;-63
2023/04/09 09:00:29;;;;;;;13.40;8.60;;;;;;;9.60;64.18;97267.91;2073450;28;20202;-63
2023/04/09 09:01:32;;;;;;;13.32;8.90;;;;;;;9.48;64.70;97264.78;2072045;28;20198;-64
2023/04/09 09:02:34;;;;;;;13.85;9.60;;;;;;;9.89;64.58;97277.44;2074085;28;20807;-64
2023/04/09 09:03:52;;;;;;;13.27;8.88;;;;;;;10.39;63.07;97273.25;2073109;28;20206;-63
2023/04/09 09:04:59;;;;;;;14.48;9.77;;;;;;;10.71;62.61;97272.09;2073617;28;20214;-63
2023/04/09 09:06:00;;;;;;;11.65;8.25;;;;;;;10.97;61.08;97265.13;2073118;28;20227;-64
2023/04/09 09:07:05;;;;;;;14.40;8.90;;;;;;;11.17;60.86;97266.13;2071861;28;20205;-64
2023/04/09 09:08:13;;;;;;;11.40;8.02;;;;;;;11.84;59.47;97262.66;2066060;28;20540;-64
2023/04/09 09:09:15;;;;;;;11.48;8.15;;;;;;;12.19;56.69;97256.94;2073787;28;20193;-64
2023/04/09 09:10:17;;;;;;;14.10;8.60;;;;;;;12.50;57.75;97258.28;2074202;28;20765;-63
2023/04/09 09:11:26;;;;;;;11.38;7.80;;;;;;;12.67;57.58;97262.78;2071130;28;20198;-63
2023/04/09 09:12:38;;;;;;;12.43;7.85;;;;;;;13.26;55.58;97260.22;2072399;28;20303;-63
2023/04/09 09:13:39;;;;;;;10.85;7.22;;;;;;;13.75;52.71;97257.97;2073566;28;20205;-62
2023/04/09 09:14:41;;;;;;;53.33;33.55;;;;;;;13.43;51.93;97262.09;2073086;28;20208;-63
2023/04/09 09:15:43;;;;;;;38.53;24.42;;;;;;;13.09;51.82;97260.97;2070069;28;20233;-63
2023/04/09 09:16:56;;;;;;;35.88;23.13;;;;;;;13.05;51.81;97265.50;2071055;28;20213;-63
2023/04/09 09:17:59;;;;;;;19.05;11.73;;;;;;;12.63;50.18;97263.84;2071524;28;20201;-63
2023/04/09 09:19:01;;;;;;;17.05;5.53;;;;;;;11.27;53.39;97257.03;2072703;28;20209;-63
2023/04/09 09:20:19;;;;;;;11.35;5.80;;;;;;;11.90;53.19;97259.81;2073068;28;20212;-63
2023/04/09 09:21:21;;;;;;;7.20;4.82;;;;;;;12.37;51.55;97260.59;2076218;28;20664;-63
2023/04/09 09:22:23;;;;;;;7.72;5.22;;;;;;;11.16;51.50;97262.69;2070478;28;20689;-63
2023/04/09 09:23:35;;;;;;;7.30;5.15;;;;;;;10.85;52.89;97269.00;2072924;28;20212;-63
2023/04/09 09:24:51;;;;;;;7.20;4.32;;;;;;;10.50;52.07;97270.25;2072010;28;20300;-63
2023/04/09 09:25:52;;;;;;;7.45;4.80;;;;;;;10.06;53.05;97265.59;2074771;28;20236;-63
2023/04/09 09:26:54;;;;;;;10.23;5.53;;;;;;;10.58;52.07;97258.63;2072354;28;20201;-63
2023/04/09 09:28:07;;;;;;;5.68;3.75;;;;;;;11.18;51.08;97263.44;2072561;28;20545;-63
2023/04/09 09:29:09;;;;;;;7.82;5.30;;;;;;;11.14;51.94;97258.41;2073266;28;20194;-63
2023/04/09 09:30:23;;;;;;;8.20;5.20;;;;;;;10.93;52.45;97266.97;2072799;28;20532;-63
2023/04/09 09:31:25;;;;;;;7.07;4.68;;;;;;;11.35;52.37;97261.97;2070405;28;20201;-63
2023/04/09 09:32:27;;;;;;;7.82;4.95;;;;;;;11.40;50.80;97263.50;2074197;28;20221;-63
2023/04/09 09:33:32;;;;;;;6.50;4.32;;;;;;;10.49;52.62;97264.19;2073622;28;20193;-64
2023/04/09 09:34:33;;;;;;;7.63;5.00;;;;;;;10.91;53.97;97271.41;2069966;28;20197;-63
2023/04/09 09:35:53;;;;;;;8.30;4.72;;;;;;;10.39;52.30;97265.41;2073129;28;20563;-63
2023/04/09 09:36:55;;;;;;;6.40;4.57;;;;;;;10.11;54.15;97272.34;2073407;28;20693;-63
2023/04/09 09:38:02;;;;;;;7.25;5.28;;;;;;;10.67;53.75;97249.63;2073638;28;20263;-63
2023/04/09 09:39:08;;;;;;;7.63;4.97;;;;;;;11.42;52.43;97266.06;2073809;28;20729;-63
2023/04/09 09:40:25;;;;;;;6.85;4.70;;;;;;;12.83;50.15;97265.59;2071092;28;20194;-63
2023/04/09 09:41:27;;;;;;;9.13;5.15;;;;;;;12.80;48.90;97266.59;2073576;28;20205;-63
2023/04/09 09:42:29;;;;;;;6.63;4.38;;;;;;;12.32;48.98;97260.75;2072042;28;20221;-63
2023/04/09 09:43:43;;;;;;;7.68;5.30;;;;;;;12.26;48.86;97268.88;2072314;28;20665;-63
2023/04/09 09:44:44;;;;;;;5.57;3.75;;;;;;;11.67;49.51;97265.09;2072450;28;20461;-64
2023/04/09 09:45:47;;;;;;;6.80;4.38;;;;;;;12.11;49.75;97267.72;2072149;28;20197;-63
2023/04/09 09:46:49;;;;;;;6.55;4.60;;;;;;;13.09;49.37;97261.84;2073019;28;20198;-64
2023/04/09 09:47:52;;;;;;;8.35;5.32;;;;;;;13.10;48.54;97268.75;2072340;28;20237;-64
2023/04/09 09:48:55;;;;;;;9.15;5.70;;;;;;;12.58;49.44;97270.16;2072168;28;20201;-64
2023/04/09 09:49:56;;;;;;;7.75;5.30;;;;;;;11.35;50.49;97259.34;2073062;28;20197;-63
2023/04/09 09:51:01;;;;;;;7.72;4.85;;;;;;;10.60;52.84;97261.19;2074993;28;20204;-63
2023/04/09 09:52:08;;;;;;;9.48;5.35;;;;;;;10.53;53.09;97264.94;2071818;28;20212;-63
2023/04/09 09:53:10;;;;;;;7.97;5.63;;;;;;;11.05;52.83;97257.84;2069835;28;20213;-63
2023/04/09 09:54:16;;;;;;;12.68;5.25;;;;;;;11.52;53.40;97267.41;2071619;28;20206;-63
2023/04/09 09:55:20;;;;;;;6.88;5.43;;;;;;;11.81;52.45;97275.03;2071767;28;20186;-63
2023/04/09 09:56:37;;;;;;;9.00;6.00;;;;;;;10.88;52.71;97263.69;2069223;28;20651;-63
2023/04/09 09:57:41;;;;;;;10.98;5.28;;;;;;;10.57;53.97;97275.19;2067215;28;20217;-63
2023/04/09 09:59:03;;;;;;;8.27;4.70;;;;;;;10.79;52.98;97261.38;2068295;28;20202;-63
2023/04/09 10:00:06;;;;;;;6.80;4.45;;;;;;;11.28;52.99;97258.75;2067010;28;20673;-63
2023/04/09 10:01:12;;;;;;;7.75;5.20;;;;;;;11.48;53.14;97260.59;2067910;28;20672;-64
2023/04/09 10:02:25;;;;;;;6.65;4.43;;;;;;;11.71;52.46;97267.53;2069568;28;20221;-63
2023/04/09 10:03:30;;;;;;;8.88;5.35;;;;;;;11.72;52.24;97271.03;2067075;28;20797;-64
2023/04/09 10:04:35;;;;;;;8.48;5.63;;;;;;;11.57;52.67;97260.22;2064598;28;20203;-62
2023/04/09 10:05:39;;;;;;;8.95;6.03;;;;;;;11.71;51.95;97261.47;2073536;28;20240;-61
2023/04/09 10:06:44;;;;;;;8.38;5.75;;;;;;;11.67;52.28;97262.47;2074240;28;20220;-61
2023/04/09 10:07:48;;;;;;;9.95;6.15;;;;;;;11.71;51.87;97258.84;2067148;28;20237;-62
2023/04/09 10:08:51;;;;;;;8.43;5.80;;;;;;;11.53;51.72;97261.28;2067614;28;20198;-61
2023/04/09 10:09:55;;;;;;;7.95;5.82;;;;;;;11.65;51.94;97264.31;2067793;28;20210;-62
2023/04/09 10:10:56;;;;;;;8.73;5.97;;;;;;;11.70;52.18;97265.00;2067071;28;20234;-62
2023/04/09 10:11:59;;;;;;;7.90;5.85;;;;;;;10.39;52.80;97261.03;2066797;28;20197;-62
2023/04/09 10:13:04;;;;;;;7.80;5.50;;;;;;;10.21;53.59;97249.41;2066491;28;20569;-61
2023/04/09 10:14:05;;;;;;;6.22;4.50;;;;;;;9.86;54.26;97263.63;2067437;28;20597;-62
2023/04/09 10:15:08;;;;;;;7.47;5.38;;;;;;;10.37;54.36;97262.81;2067421;28;20349;-62
2023/04/09 10:16:10;;;;;;;6.65;5.07;;;;;;;10.67;52.64;97269.69;2065747;28;20549;-62
2023/04/09 10:17:11;;;;;;;10.13;5.13;;;;;;;10.75;51.32;97265.88;2065164;28;20658;-62
2023/04/09 10:18:14;;;;;;;6.00;4.72;;;;;;;10.42;51.54;97258.31;2066704;28;20199;-62
2023/04/09 10:19:16;;;;;;;6.65;4.78;;;;;;;10.57;51.57;97266.53;2065858;28;20203;-62
2023/04/09 10:20:31;;;;;;;15.20;4.30;;;;;;;10.67;51.69;97262.69;2066268;28;20221;-61
2023/04/09 10:21:57;;;;;;;9.85;5.10;;;;;;;11.06;50.96;97263.94;2068105;28;20198;-61
2023/04/09 10:23:05;;;;;;;6.18;4.65;;;;;;;11.62;50.61;97262.69;2067595;28;20191;-62
2023/04/09 10:24:07;;;;;;;9.07;5.03;;;;;;;11.14;50.50;97261.88;2068484;28;20355;-62
2023/04/09 10:25:09;;;;;;;7.03;4.60;;;;;;;11.02;51.19;97257.09;2067928;28;20825;-62
2023/04/09 10:26:10;;;;;;;5.35;3.78;;;;;;;11.48;49.73;97262.34;2068188;28;20205;-61
2023/04/09 10:27:14;;;;;;;5.65;4.00;;;;;;;11.96;49.50;97258.75;2067559;28;20902;-62
2023/04/09 10:28:18;;;;;;;6.75;4.22;;;;;;;12.07;48.23;97250.44;2068023;28;20197;-62
2023/04/09 10:29:27;;;;;;;6.68;4.13;;;;;;;12.52;47.51;97252.06;2066088;28;20202;-62
2023/04/09 10:30:35;;;;;;;5.25;3.85;;;;;;;12.66;47.39;97247.97;2066795;28;20214;-62
2023/04/09 10:31:53;;;;;;;5.22;4.18;;;;;;;12.84;47.44;97251.59;2067737;28;20216;-62
2023/04/09 10:32:56;;;;;;;5.80;4.00;;;;;;;12.93;46.71;97243.31;2069339;28;20206;-62
2023/04/09 10:34:03;;;;;;;4.57;3.35;;;;;;;12.95;46.52;97249.34;2071522;28;20243;-62
2023/04/09 10:35:05;;;;;;;5.22;3.67;;;;;;;13.14;45.44;97248.50;2072599;28;20834;-62
2023/04/09 10:36:11;;;;;;;5.63;4.25;;;;;;;12.96;45.33;97244.94;2067311;28;20677;-62
2023/04/09 10:37:19;;;;;;;7.18;4.53;;;;;;;13.29;46.60;97246.94;2066290;28;20585;-62
2023/04/09 10:38:35;;;;;;;7.72;5.13;;;;;;;13.39;46.78;97246.50;2068362;28;20202;-63
2023/04/09 10:39:43;;;;;;;7.60;4.55;;;;;;;12.97;45.69;97251.91;2066728;28;20201;-62
2023/04/09 10:40:50;;;;;;;6.80;4.72;;;;;;;12.48;46.21;97249.63;2067679;28;20193;-62
2023/04/09 10:41:53;;;;;;;6.30;4.45;;;;;;;11.97;46.09;97249.97;2065504;28;20236;-61
2023/04/09 10:42:56;;;;;;;7.35;4.32;;;;;;;11.70;46.93;97246.69;2066228;28;20673;-62
2023/04/09 10:43:57;;;;;;;3.65;2.15;;;;;;;11.16;44.00;97265.28;2067393;28;20206;-62
2023/04/09 10:45:09;;;;;;;3.80;2.30;;;;;;;10.29;44.14;97262.22;2067477;28;20256;-61
2023/04/09 10:46:34;;;;;;;4.95;2.60;;;;;;;10.61;44.72;97258.53;2068524;28;20198;-61
2023/04/09 10:47:38;;;;;;;3.80;2.70;;;;;;;11.08;44.57;97246.41;2067215;28;20222;-63
2023/04/09 10:48:40;;;;;;;3.70;2.40;;;;;;;10.90;44.83;97240.94;2068096;28;20198;-63
2023/04/09 10:49:41;;;;;;;6.05;3.03;;;;;;;11.31;45.44;97242.09;2068514;28;20206;-63
2023/04/09 10:50:43;;;;;;;4.78;2.58;;;;;;;11.99;45.66;97255.16;2068061;28;20688;-63
2023/04/09 10:52:09;;;;;;;8.02;5.00;;;;;;;12.60;46.67;97246.50;2067126;28;20202;-63
2023/04/09 10:53:23;;;;;;;9.05;5.93;;;;;;;11.84;46.78;97246.13;2066773;28;20198;-64
2023/04/09 10:54:34;;;;;;;5.47;3.85;;;;;;;12.00;46.27;97242.00;2067495;28;20206;-63
2023/04/09 10:55:37;;;;;;;8.48;4.75;;;;;;;11.47;48.49;97256.28;2067612;28;20190;-62
2023/04/09 10:56:39;;;;;;;40.72;15.07;;;;;;;11.63;47.70;97246.09;2066202;28;20241;-61
2023/04/09 10:57:41;;;;;;;57.30;30.25;;;;;;;11.75;45.43;97245.56;2063493;28;20226;-61
2023/04/09 10:58:43;;;;;;;3.80;2.60;;;;;;;10.99;45.96;97245.00;2065293;28;20209;-62
2023/04/09 10:59:53;;;;;;;6.03;4.35;;;;;;;11.21;46.51;97234.59;2068283;28;20199;-62
2023/04/09 11:00:55;;;;;;;64.75;34.35;;;;;;;11.57;46.41;97230.63;2066986;28;20202;-64
2023/04/09 11:01:57;;;;;;;9.35;5.45;;;;;;;11.49;45.79;97241.38;2063793;28;20256;-61
2023/04/09 11:03:02;;;;;;;4.90;3.17;;;;;;;10.57;47.11;97256.06;2064621;28;20691;-62
2023/04/09 11:04:15;;;;;;;6.28;4.25;;;;;;;9.82;48.15;97247.22;2067980;28;20210;-61
2023/04/09 11:05:23;;;;;;;6.10;3.50;;;;;;;10.29;48.62;97242.16;2064818;28;20358;-63
2023/04/09 11:06:26;;;;;;;6.22;3.67;;;;;;;11.22;46.67;97246.75;2066995;28;20230;-63
2023/04/09 11:07:29;;;;;;;6.28;4.10;;;;;;;12.63;45.30;97228.00;2064739;28;20629;-63
2023/04/09 11:08:32;;;;;;;4.88;3.50;;;;;;;13.15;43.99;97239.72;2067501;28;20206;-63
2023/04/09 11:09:34;;;;;;;5.57;3.58;;;;;;;12.83;44.00;97229.75;2067288;28;20202;-63
2023/04/09 11:10:42;;;;;;;5.47;3.90;;;;;;;12.17;45.03;97230.00;2066383;28;20557;-63
2023/04/09 11:11:52;;;;;;;5.00;3.47;;;;;;;11.64;45.54;97233.84;2066325;28;20202;-63
2023/04/09 11:12:53;;;;;;;5.10;3.25;;;;;;;11.59;44.29;97236.63;2067199;28;20210;-63
2023/04/09 11:14:00;;;;;;;4.78;3.25;;;;;;;12.34;44.62;97232.75;2069616;28;20198;-64
2023/04/09 11:15:02;;;;;;;4.30;3.28;;;;;;;12.64;43.58;97226.25;2066876;28;20206;-63
2023/04/09 11:16:05;;;;;;;4.10;2.67;;;;;;;13.80;41.79;97229.72;2068955;28;20252;-64
2023/04/09 11:17:07;;;;;;;4.40;2.90;;;;;;;12.57;42.36;97221.28;2063162;28;20320;-64
2023/04/09 11:18:14;;;;;;;4.10;2.83;;;;;;;12.12;45.05;97229.34;2067097;28;20202;-63
2023/04/09 11:19:15;;;;;;;3.95;2.70;;;;;;;11.50;44.32;97232.59;2065944;28;20195;-63
2023/04/09 11:20:22;;;;;;;4.38;2.97;;;;;;;10.41;44.75;97235.72;2066924;28;20583;-63
2023/04/09 11:21:27;;;;;;;4.47;2.90;;;;;;;10.70;45.79;97251.28;2067431;28;20661;-63
2023/04/09 11:22:29;;;;;;;5.78;3.38;;;;;;;10.14;45.63;97229.66;2067334;28;20230;-64
2023/04/09 11:23:31;;;;;;;4.43;2.60;;;;;;;9.67;46.51;97232.06;2068350;28;20202;-63
2023/04/09 11:24:43;;;;;;;4.22;2.80;;;;;;;10.11;47.19;97232.38;2068298;28;20697;-63
2023/04/09 11:25:49;;;;;;;5.32;3.17;;;;;;;9.64;47.07;97168.66;2067678;28;20272;-63
2023/04/09 11:26:50;;;;;;;5.50;3.10;;;;;;;10.08;47.35;97230.72;2066478;28;20206;-63
2023/04/09 11:27:53;;;;;;;3.75;2.60;;;;;;;10.26;47.62;97244.06;2066004;28;20193;-63
2023/04/09 11:28:56;;;;;;;4.47;3.05;;;;;;;9.77;47.87;97228.25;2065180;28;20260;-63
2023/04/09 11:29:57;;;;;;;6.22;4.18;;;;;;;9.79;47.93;97240.34;2068057;28;20247;-62
2023/04/09 11:30:59;;;;;;;5.07;3.45;;;;;;;10.13;47.72;97236.63;2068192;28;20198;-63
2023/04/09 11:32:01;;;;;;;5.88;3.83;;;;;;;10.49;47.84;97245.03;2067906;28;20225;-63
2023/04/09 11:33:03;;;;;;;5.78;3.92;;;;;;;10.41;47.47;97221.81;2071114;28;20221;-63
2023/04/09 11:34:04;;;;;;;6.00;4.32;;;;;;;10.47;48.23;97233.81;2071788;28;20202;-63
2023/04/09 11:35:17;;;;;;;6.30;4.15;;;;;;;10.49;48.43;97240.69;2065870;28;20229;-63
2023/04/09 11:36:20;;;;;;;8.82;3.70;;;;;;;10.61;48.26;97232.41;2066818;28;20669;-63
2023/04/09 11:37:22;;;;;;;7.22;4.30;;;;;;;10.63;47.81;97229.75;2070495;28;20225;-63
2023/04/09 11:38:24;;;;;;;6.30;4.15;;;;;;;10.58;47.99;97232.50;2071140;28;20205;-63
2023/04/09 11:39:25;;;;;;;6.10;4.30;;;;;;;10.51;48.01;97230.19;2065811;28;20198;-63
2023/04/09 11:40:28;;;;;;;4.72;3.40;;;;;;;10.58;48.38;97234.28;2067120;28;20206;-63
2023/04/09 11:41:38;;;;;;;6.35;3.95;;;;;;;10.33;48.62;97232.47;2065160;28;20209;-63
2023/04/09 11:42:39;;;;;;;6.03;4.00;;;;;;;10.45;48.95;97234.72;2065623;28;20225;-63
2023/04/09 11:43:41;;;;;;;5.72;4.15;;;;;;;9.80;49.06;97231.63;2067567;28;20285;-62
2023/04/09 11:44:45;;;;;;;7.82;4.30;;;;;;;10.17;49.26;97233.91;2066652;28;20245;-62
2023/04/09 11:45:48;;;;;;;6.38;3.72;;;;;;;10.00;49.15;97245.75;2066379;28;20804;-63
2023/04/09 11:46:49;;;;;;;6.80;4.65;;;;;;;9.86;49.36;97229.72;2066651;28;20199;-63
2023/04/09 11:47:52;;;;;;;7.68;4.70;;;;;;;9.33;49.56;97223.50;2068080;28;20206;-63
2023/04/09 11:48:54;;;;;;;6.47;4.28;;;;;;;9.92;49.79;97234.72;2065569;28;20210;-62
2023/04/09 11:49:56;;;;;;;4.47;3.35;;;;;;;9.97;50.49;97236.28;2062962;28;20676;-62
2023/04/09 11:50:57;;;;;;;7.57;4.50;;;;;;;10.20;50.25;97242.50;2065307;28;20205;-64
2023/04/09 11:52:00;;;;;;;10.50;6.95;;;;;;;10.56;49.15;97239.56;2063039;28;20822;-63
2023/04/09 11:53:18;;;;;;;5.05;3.70;;;;;;;10.79;49.09;97240.47;2066451;28;20558;-63
2023/04/09 11:54:19;;;;;;;7.55;4.63;;;;;;;11.08;48.34;97231.59;2065330;28;20202;-63
2023/04/09 11:55:26;;;;;;;7.00;4.50;;;;;;;10.96;47.34;97242.50;2065653;28;20198;-62
2023/04/09 11:56:29;;;;;;;6.50;4.32;;;;;;;10.57;47.53;97240.41;2066168;28;20222;-62
2023/04/09 11:57:41;;;;;;;8.60;4.30;;;;;;;10.90;47.21;97243.56;2065641;28;20214;-62
2023/04/09 11:58:47;;;;;;;6.35;4.13;;;;;;;10.24;46.99;97241.47;2065000;28;20826;-62